Feldkirchen, Austria
Current Conditions -  °F | °C
As of 9:50 AM on Friday 24 Oct 2014 (Local Time) from LOWK Reporting Station
Scattered Clouds Scattered Clouds  
Wind Chill: 54°   Ceiling: Unl
Heat Index: 54°   Visibility: 6mi
Dew Point: 41°   Wind: 3mph
Humidity: 62%   Direction: 210°SSW
Pressure: 30.03"   Gusts: NA
Location:  46.73°N, 14.08°E
Report Text: LOWK 240750Z 21003KT 160V270 9999 FEW060 SCT100 12/05 Q1017 NOSIG
Loading
Personal Weather Stations






























Interactive Weather Map
Tropical Storm Tracking
New forecast layout! Learn more

10-Day Weather Forecast

Advertisements
Track Severe Weather on mobile